Time;durP1;ratioP1;P1;durP2;ratioP2;P2;SDS_P1;SDS_P2;PMS_P1;PMS_P2;Temp;Humidity;BMP_temperature;BMP_pressure;BME280_temperature;BME280_humidity;BME280_pressure;Samples;Min_cycle;Max_cycle;Signal;HPM_P1;HPM_P2
2023/07/12 00:01:44;;;;;;;5.20;0.90;;;;;;;;;;5026321;28;20034;-77
2023/07/12 00:04:10;;;;;;;2.97;1.10;;;;;;;;;;5023846;28;20038;-77
2023/07/12 00:06:37;;;;;;;4.07;1.02;;;;;;;;;;5024303;28;20270;-76
2023/07/12 00:09:10;;;;;;;2.55;1.15;;;;;;;;;;5030308;28;20024;-76
2023/07/12 00:11:36;;;;;;;4.25;1.20;;;;;;;;;;5028480;28;20022;-75
2023/07/12 00:14:02;;;;;;;2.42;1.20;;;;;;;;;;5024397;28;20056;-76
2023/07/12 00:16:38;;;;;;;4.30;1.10;;;;;;;;;;5046470;28;20050;-75
2023/07/12 00:19:08;;;;;;;5.93;1.02;;;;;;;;;;5028088;28;20065;-77
2023/07/12 00:21:34;;;;;;;1.77;0.95;;;;;;;;;;5026834;28;20034;-76
2023/07/12 00:24:01;;;;;;;3.55;1.40;;;;;;;;;;5012536;28;20065;-80
2023/07/12 00:26:28;;;;;;;5.38;1.20;;;;;;;;;;5018058;28;20021;-79
2023/07/12 00:28:55;;;;;;;4.50;1.25;;;;;;;;;;5024457;28;20038;-76
2023/07/12 00:31:21;;;;;;;4.30;1.23;;;;;;;;;;5020583;28;20038;-78
2023/07/12 00:33:47;;;;;;;2.78;1.02;;;;;;;;;;5018672;28;20040;-80
2023/07/12 00:36:27;;;;;;;5.97;0.95;;;;;;;;;;5021169;28;20432;-78
2023/07/12 00:38:54;;;;;;;3.35;0.90;;;;;;;;;;5023032;28;20030;-76
2023/07/12 00:41:30;;;;;;;2.83;0.95;;;;;;;;;;5025393;28;20033;-77
2023/07/12 00:44:00;;;;;;;2.65;1.00;;;;;;;;;;5011760;28;20022;-81
2023/07/12 00:46:38;;;;;;;5.57;0.95;;;;;;;;;;5008389;28;20117;-79
2023/07/12 00:49:05;;;;;;;2.17;0.95;;;;;;;;;;5036170;28;20033;-79
2023/07/12 00:51:52;;;;;;;3.55;1.15;;;;;;;;;;5013933;28;20470;-80
2023/07/12 00:54:20;;;;;;;7.20;1.17;;;;;;;;;;5017870;28;20038;-79
2023/07/12 00:56:46;;;;;;;1.75;0.70;;;;;;;;;;5010489;28;20038;-82
2023/07/12 00:59:19;;;;;;;5.72;0.95;;;;;;;;;;5016823;28;20026;-80
2023/07/12 01:01:48;;;;;;;2.08;0.88;;;;;;;;;;5008802;28;20033;-79
2023/07/12 01:04:17;;;;;;;3.92;1.45;;;;;;;;;;5018613;28;20030;-79
2023/07/12 01:06:43;;;;;;;6.18;1.58;;;;;;;;;;5034550;28;20034;-81
2023/07/12 01:09:11;;;;;;;4.28;1.30;;;;;;;;;;5012751;28;20116;-78
2023/07/12 01:11:38;;;;;;;2.92;1.40;;;;;;;;;;5028088;28;20034;-75
2023/07/12 01:14:09;;;;;;;3.38;1.27;;;;;;;;;;5023908;28;20158;-77
2023/07/12 01:16:35;;;;;;;10.07;1.80;;;;;;;;;;5029470;28;20065;-77
2023/07/12 01:19:01;;;;;;;11.57;2.33;;;;;;;;;;5046826;28;20056;-76
2023/07/12 01:21:31;;;;;;;4.88;2.22;;;;;;;;;;5046995;28;20030;-76
2023/07/12 01:23:57;;;;;;;8.85;2.83;;;;;;;;;;5032788;28;20018;-76
2023/07/12 01:26:25;;;;;;;6.07;2.40;;;;;;;;;;5149850;22;20048;-77
2023/07/12 01:28:53;;;;;;;15.70;4.40;;;;;;;;;;5063835;28;20013;-77
2023/07/12 01:31:19;;;;;;;15.25;4.72;;;;;;;;;;5083535;22;20092;-76
2023/07/12 01:33:45;;;;;;;12.00;6.20;;;;;;;;;;5055655;28;20057;-79
2023/07/12 01:36:15;;;;;;;14.82;5.97;;;;;;;;;;5052310;28;20041;-78
2023/07/12 01:38:41;;;;;;;16.67;5.57;;;;;;;;;;5046670;28;20049;-77
2023/07/12 01:41:07;;;;;;;9.20;4.55;;;;;;;;;;5186508;22;20120;-78
2023/07/12 01:43:34;;;;;;;11.32;4.00;;;;;;;;;;5066113;28;20033;-77
2023/07/12 01:46:00;;;;;;;7.38;5.07;;;;;;;;;;5065531;28;20044;-77
2023/07/12 01:48:26;;;;;;;6.20;3.55;;;;;;;;;;5063032;28;20025;-78
2023/07/12 01:50:52;;;;;;;7.07;4.50;;;;;;;;;;5068258;28;20037;-78
2023/07/12 01:53:18;;;;;;;11.60;6.00;;;;;;;;;;5066253;28;20022;-77
2023/07/12 01:55:44;;;;;;;10.20;5.15;;;;;;;;;;5063721;28;20052;-77
2023/07/12 01:58:11;;;;;;;10.57;4.15;;;;;;;;;;5065832;28;20021;-78
2023/07/12 02:00:37;;;;;;;11.23;4.32;;;;;;;;;;5062523;28;20025;-78
2023/07/12 02:03:03;;;;;;;8.10;3.35;;;;;;;;;;5062892;28;20047;-79
2023/07/12 02:05:29;;;;;;;6.70;3.55;;;;;;;;;;5065010;28;20030;-77
2023/07/12 02:07:56;;;;;;;6.78;3.20;;;;;;;;;;5064020;28;20017;-77
2023/07/12 02:10:25;;;;;;;12.40;4.05;;;;;;;;;;5065202;28;20101;-77
2023/07/12 02:12:52;;;;;;;12.35;4.78;;;;;;;;;;5065695;28;20334;-81
2023/07/12 02:15:18;;;;;;;7.55;4.20;;;;;;;;;;5066455;28;20033;-78
2023/07/12 02:17:44;;;;;;;10.20;4.03;;;;;;;;;;5064413;28;20036;-77
2023/07/12 02:20:11;;;;;;;8.25;4.43;;;;;;;;;;5080917;22;20034;-78
2023/07/12 02:22:38;;;;;;;7.32;3.67;;;;;;;;;;5052137;28;20091;-77
2023/07/12 02:25:05;;;;;;;7.90;3.58;;;;;;;;;;5051063;28;20033;-76
2023/07/12 02:27:31;;;;;;;4.22;3.47;;;;;;;;;;5052820;28;20040;-77
2023/07/12 02:29:57;;;;;;;7.32;3.92;;;;;;;;;;5065446;28;20017;-77
2023/07/12 02:32:25;;;;;;;7.20;3.13;;;;;;;;;;5052446;28;20014;-76
2023/07/12 02:34:51;;;;;;;9.50;3.97;;;;;;;;;;5051308;28;20033;-78
2023/07/12 02:37:17;;;;;;;9.05;4.70;;;;;;;;;;5052041;28;20056;-78
2023/07/12 02:39:44;;;;;;;5.93;3.90;;;;;;;;;;5062420;28;20043;-76
2023/07/12 02:42:10;;;;;;;7.60;3.83;;;;;;;;;;5051446;28;20025;-77
2023/07/12 02:44:38;;;;;;;6.85;3.55;;;;;;;;;;5055484;28;20082;-78
2023/07/12 02:47:04;;;;;;;6.63;2.58;;;;;;;;;;5053194;28;20053;-77
2023/07/12 02:49:30;;;;;;;8.52;3.28;;;;;;;;;;5051104;28;20025;-77
2023/07/12 02:51:56;;;;;;;4.38;2.90;;;;;;;;;;5051066;28;20075;-78
2023/07/12 02:54:22;;;;;;;5.93;2.10;;;;;;;;;;5050918;28;20101;-76
2023/07/12 02:56:48;;;;;;;3.65;1.77;;;;;;;;;;5047704;28;20083;-77
2023/07/12 02:59:14;;;;;;;3.78;2.17;;;;;;;;;;5046269;28;20053;-79
2023/07/12 03:01:42;;;;;;;2.70;1.45;;;;;;;;;;5048595;28;20021;-80
2023/07/12 03:04:08;;;;;;;5.57;2.08;;;;;;;;;;5047528;28;20594;-80
2023/07/12 03:06:34;;;;;;;8.63;2.03;;;;;;;;;;5046933;28;20048;-79
2023/07/12 03:09:03;;;;;;;4.47;1.58;;;;;;;;;;5049227;28;20478;-79
2023/07/12 03:11:29;;;;;;;7.20;1.92;;;;;;;;;;5047594;28;20025;-83
2023/07/12 03:13:58;;;;;;;5.13;1.80;;;;;;;;;;5048604;28;20020;-78
2023/07/12 03:16:24;;;;;;;3.42;1.90;;;;;;;;;;5047420;28;20026;-77
2023/07/12 03:18:50;;;;;;;6.18;1.65;;;;;;;;;;5052259;28;20010;-78
2023/07/12 03:21:16;;;;;;;3.40;1.60;;;;;;;;;;5049012;28;20025;-78
2023/07/12 03:23:45;;;;;;;5.78;1.33;;;;;;;;;;5049099;28;20017;-77
2023/07/12 03:26:14;;;;;;;2.97;1.65;;;;;;;;;;5053105;28;20337;-77
2023/07/12 03:28:40;;;;;;;8.77;1.92;;;;;;;;;;5046644;28;20025;-81
2023/07/12 03:31:07;;;;;;;7.18;1.35;;;;;;;;;;5045647;28;21084;-79
2023/07/12 03:33:34;;;;;;;8.90;1.40;;;;;;;;;;5051814;28;20021;-78
2023/07/12 03:36:00;;;;;;;11.15;1.63;;;;;;;;;;5048237;28;20029;-78
2023/07/12 03:38:28;;;;;;;9.82;1.38;;;;;;;;;;5046312;28;20101;-77
2023/07/12 03:40:58;;;;;;;4.85;1.65;;;;;;;;;;5049506;28;20020;-78
2023/07/12 03:43:25;;;;;;;5.57;1.27;;;;;;;;;;5047229;28;20026;-78
2023/07/12 03:45:51;;;;;;;8.82;2.15;;;;;;;;;;5047841;28;20029;-76
2023/07/12 03:48:17;;;;;;;5.10;1.27;;;;;;;;;;5047728;28;20033;-79
2023/07/12 03:50:44;;;;;;;13.07;1.50;;;;;;;;;;5051445;28;20061;-77
2023/07/12 03:53:12;;;;;;;5.72;1.40;;;;;;;;;;5050175;28;20032;-77
2023/07/12 03:55:44;;;;;;;4.68;1.42;;;;;;;;;;5046541;28;20034;-77
2023/07/12 03:58:13;;;;;;;5.75;1.25;;;;;;;;;;5048856;28;20041;-76
2023/07/12 04:00:40;;;;;;;7.00;1.45;;;;;;;;;;5054740;28;20023;-78
2023/07/12 04:03:08;;;;;;;2.72;1.02;;;;;;;;;;5048014;28;20029;-78
2023/07/12 04:05:38;;;;;;;6.63;0.95;;;;;;;;;;5048978;28;20013;-77
2023/07/12 04:08:04;;;;;;;9.02;1.20;;;;;;;;;;5053517;28;20044;-79
2023/07/12 04:10:30;;;;;;;4.80;1.00;;;;;;;;;;5047844;28;20026;-78
2023/07/12 04:12:57;;;;;;;5.78;1.27;;;;;;;;;;5047426;28;20033;-81
2023/07/12 04:15:23;;;;;;;7.00;1.55;;;;;;;;;;5047447;28;20033;-77
2023/07/12 04:17:49;;;;;;;8.52;1.52;;;;;;;;;;5049466;28;20075;-78
2023/07/12 04:20:15;;;;;;;6.40;1.40;;;;;;;;;;5047736;28;20137;-80
2023/07/12 04:22:41;;;;;;;4.63;1.20;;;;;;;;;;5048555;28;20037;-79
2023/07/12 04:25:11;;;;;;;3.47;1.25;;;;;;;;;;5048115;28;20030;-80
2023/07/12 04:27:37;;;;;;;5.57;1.77;;;;;;;;;;5048787;28;20034;-78
2023/07/12 04:30:04;;;;;;;6.22;1.70;;;;;;;;;;5045302;28;20059;-78
2023/07/12 04:32:30;;;;;;;4.38;1.33;;;;;;;;;;5052171;28;20061;-78
2023/07/12 04:34:56;;;;;;;4.78;1.15;;;;;;;;;;5046628;28;20033;-79
2023/07/12 04:37:23;;;;;;;3.83;1.00;;;;;;;;;;5049237;28;20028;-76
2023/07/12 04:39:49;;;;;;;3.13;1.08;;;;;;;;;;5048781;28;20028;-78
2023/07/12 04:42:18;;;;;;;2.35;1.38;;;;;;;;;;5046345;28;20026;-77
2023/07/12 04:44:44;;;;;;;3.13;1.40;;;;;;;;;;5047412;28;20045;-78
2023/07/12 04:47:11;;;;;;;1.88;0.98;;;;;;;;;;5046631;28;20033;-79
2023/07/12 04:49:37;;;;;;;2.25;0.70;;;;;;;;;;5048443;28;20135;-79
2023/07/12 04:52:05;;;;;;;2.97;0.90;;;;;;;;;;5064384;28;20056;-82
2023/07/12 04:54:35;;;;;;;1.85;1.25;;;;;;;;;;5045899;28;20030;-78
2023/07/12 04:57:01;;;;;;;2.53;0.98;;;;;;;;;;5049733;28;20054;-80
2023/07/12 04:59:27;;;;;;;1.92;0.98;;;;;;;;;;5049592;28;20076;-77
2023/07/12 05:01:53;;;;;;;5.10;1.10;;;;;;;;;;5051432;28;20052;-78
2023/07/12 05:04:19;;;;;;;4.22;1.40;;;;;;;;;;5052063;28;20025;-76
2023/07/12 05:06:45;;;;;;;2.75;1.15;;;;;;;;;;5054641;28;20027;-78
2023/07/12 05:09:14;;;;;;;2.85;1.13;;;;;;;;;;5050105;28;20029;-77
2023/07/12 05:11:40;;;;;;;2.17;1.40;;;;;;;;;;5043881;28;20054;-79
2023/07/12 05:14:06;;;;;;;1.98;0.90;;;;;;;;;;5043392;28;20024;-80
2023/07/12 05:16:32;;;;;;;2.97;0.80;;;;;;;;;;5044437;28;20041;-78
2023/07/12 05:18:58;;;;;;;3.13;1.10;;;;;;;;;;5045234;28;20057;-77
2023/07/12 05:21:25;;;;;;;3.08;0.95;;;;;;;;;;5041750;28;20017;-80
2023/07/12 05:23:51;;;;;;;2.35;1.00;;;;;;;;;;5043779;28;20037;-77
2023/07/12 05:26:17;;;;;;;1.25;1.00;;;;;;;;;;5049212;28;20017;-77
2023/07/12 05:28:43;;;;;;;2.85;1.38;;;;;;;;;;5045979;28;20072;-76
2023/07/12 05:31:10;;;;;;;2.08;0.68;;;;;;;;;;5049715;28;20029;-80
2023/07/12 05:33:36;;;;;;;1.20;0.90;;;;;;;;;;5044383;28;20025;-76
2023/07/12 05:36:03;;;;;;;4.50;1.30;;;;;;;;;;5041485;28;20025;-80
2023/07/12 05:38:31;;;;;;;1.73;0.88;;;;;;;;;;5042308;28;20021;-79
2023/07/12 05:40:58;;;;;;;4.55;1.13;;;;;;;;;;5047357;28;20109;-78
2023/07/12 05:43:24;;;;;;;1.75;0.90;;;;;;;;;;5051141;28;20029;-76
2023/07/12 05:45:51;;;;;;;4.55;1.00;;;;;;;;;;5050383;28;20025;-78
2023/07/12 05:48:17;;;;;;;2.20;0.85;;;;;;;;;;5048427;28;20025;-77
2023/07/12 05:50:51;;;;;;;3.20;1.20;;;;;;;;;;5053329;28;20036;-81
2023/07/12 05:53:17;;;;;;;4.85;0.77;;;;;;;;;;5050656;28;20056;-80
2023/07/12 05:55:43;;;;;;;4.28;0.82;;;;;;;;;;5050451;28;20102;-80
2023/07/12 05:58:12;;;;;;;2.00;0.98;;;;;;;;;;5049295;28;20014;-77
2023/07/12 06:00:38;;;;;;;2.15;1.02;;;;;;;;;;5049668;28;20085;-79
2023/07/12 06:03:05;;;;;;;2.28;1.08;;;;;;;;;;5052276;28;20113;-78
2023/07/12 06:05:31;;;;;;;2.60;1.02;;;;;;;;;;5049171;28;20055;-77
2023/07/12 06:08:00;;;;;;;1.88;1.10;;;;;;;;;;5051978;28;20025;-78
2023/07/12 06:10:26;;;;;;;2.00;0.77;;;;;;;;;;5052462;28;20038;-76
2023/07/12 06:12:52;;;;;;;2.78;0.95;;;;;;;;;;5048555;28;20049;-79
2023/07/12 06:15:18;;;;;;;2.15;1.00;;;;;;;;;;5049374;28;20034;-78
2023/07/12 06:17:44;;;;;;;2.25;0.85;;;;;;;;;;5048845;28;20040;-78
2023/07/12 06:20:10;;;;;;;4.53;0.90;;;;;;;;;;5048162;28;20026;-82
2023/07/12 06:22:37;;;;;;;1.00;0.50;;;;;;;;;;5049993;28;20431;-77
2023/07/12 06:25:03;;;;;;;3.00;1.10;;;;;;;;;;5049328;28;20049;-78
2023/07/12 06:27:29;;;;;;;2.78;1.05;;;;;;;;;;5049929;28;20391;-77
2023/07/12 06:29:55;;;;;;;2.88;0.77;;;;;;;;;;5047983;28;20030;-77
2023/07/12 06:32:21;;;;;;;3.40;1.23;;;;;;;;;;5052624;28;20017;-77
2023/07/12 06:34:47;;;;;;;3.60;1.27;;;;;;;;;;5052048;28;21070;-79
2023/07/12 06:37:13;;;;;;;2.58;1.20;;;;;;;;;;5050531;28;20093;-77
2023/07/12 06:39:42;;;;;;;1.80;0.80;;;;;;;;;;5052765;28;20013;-76
2023/07/12 06:42:08;;;;;;;3.10;0.75;;;;;;;;;;5049964;28;20163;-76
2023/07/12 06:44:36;;;;;;;3.08;1.17;;;;;;;;;;5049396;28;20077;-78
2023/07/12 06:47:02;;;;;;;1.90;1.00;;;;;;;;;;5048929;28;20014;-77
2023/07/12 06:49:29;;;;;;;1.60;0.80;;;;;;;;;;5049290;28;20041;-77
2023/07/12 06:51:57;;;;;;;2.83;0.80;;;;;;;;;;5046805;28;20029;-77
2023/07/12 06:54:25;;;;;;;1.83;0.95;;;;;;;;;;5048499;28;20034;-78
2023/07/12 06:56:51;;;;;;;3.05;1.20;;;;;;;;;;5047058;28;20046;-78
2023/07/12 06:59:17;;;;;;;2.42;0.82;;;;;;;;;;5051520;28;20026;-76
2023/07/12 07:01:43;;;;;;;5.38;1.13;;;;;;;;;;5049599;28;20018;-75
2023/07/12 07:04:09;;;;;;;7.25;1.10;;;;;;;;;;5049032;28;20087;-76
2023/07/12 07:06:35;;;;;;;6.30;1.13;;;;;;;;;;5054154;28;20034;-76
2023/07/12 07:09:01;;;;;;;4.38;0.88;;;;;;;;;;5050584;28;20033;-78
2023/07/12 07:11:29;;;;;;;5.28;1.80;;;;;;;;;;5059554;28;20045;-77
2023/07/12 07:13:56;;;;;;;4.18;0.57;;;;;;;;;;5051470;28;20035;-78
2023/07/12 07:16:23;;;;;;;3.22;0.93;;;;;;;;;;5048814;28;21093;-77
2023/07/12 07:18:49;;;;;;;1.30;0.77;;;;;;;;;;5050354;28;20030;-77
2023/07/12 07:21:15;;;;;;;1.60;0.60;;;;;;;;;;5047198;28;20056;-77
2023/07/12 07:23:44;;;;;;;1.40;0.70;;;;;;;;;;5048462;28;20009;-78
2023/07/12 07:26:11;;;;;;;2.35;0.80;;;;;;;;;;5048646;28;20506;-76
2023/07/12 07:28:40;;;;;;;1.42;0.70;;;;;;;;;;5046668;28;20045;-78
2023/07/12 07:31:09;;;;;;;7.90;0.98;;;;;;;;;;5048101;28;20020;-78
2023/07/12 07:33:37;;;;;;;5.53;1.25;;;;;;;;;;5048131;28;20041;-78
2023/07/12 07:36:05;;;;;;;5.10;1.00;;;;;;;;;;5047898;28;20045;-80
2023/07/12 07:38:31;;;;;;;4.70;1.33;;;;;;;;;;5049909;28;20033;-77
2023/07/12 07:40:57;;;;;;;4.40;1.10;;;;;;;;;;5047663;28;20048;-77
2023/07/12 07:43:23;;;;;;;5.10;0.95;;;;;;;;;;5046765;28;20022;-76
2023/07/12 07:45:49;;;;;;;4.03;1.00;;;;;;;;;;5049467;28;20119;-76
2023/07/12 07:48:15;;;;;;;3.28;1.30;;;;;;;;;;5047794;28;20026;-76
2023/07/12 07:50:42;;;;;;;2.97;1.17;;;;;;;;;;5048202;28;20034;-75
2023/07/12 07:53:11;;;;;;;4.20;1.38;;;;;;;;;;5052784;28;20031;-78
2023/07/12 07:58:13;;;;;;;7.00;1.20;;;;;;;;;;5087053;22;20057;-77
2023/07/12 08:00:39;;;;;;;3.58;0.90;;;;;;;;;;5058071;28;20021;-76
2023/07/12 08:03:06;;;;;;;2.38;0.90;;;;;;;;;;5057389;28;20029;-76
2023/07/12 08:05:35;;;;;;;4.20;1.00;;;;;;;;;;5060349;28;20021;-77
2023/07/12 08:08:01;;;;;;;8.48;0.90;;;;;;;;;;5061566;28;20025;-77
2023/07/12 08:10:29;;;;;;;5.43;0.90;;;;;;;;;;5055717;28;20024;-77
2023/07/12 08:12:58;;;;;;;4.72;0.80;;;;;;;;;;5058725;28;20017;-77
2023/07/12 08:15:24;;;;;;;5.97;1.38;;;;;;;;;;5058713;28;20060;-75
2023/07/12 08:17:51;;;;;;;3.03;1.00;;;;;;;;;;5060257;28;20044;-77
2023/07/12 08:20:17;;;;;;;4.07;1.20;;;;;;;;;;5057041;28;20101;-77
2023/07/12 08:22:44;;;;;;;4.63;1.20;;;;;;;;;;5065084;28;20087;-78
2023/07/12 08:25:10;;;;;;;3.47;1.13;;;;;;;;;;5057892;28;20032;-76
2023/07/12 08:27:36;;;;;;;3.55;0.80;;;;;;;;;;5066818;28;20022;-77
2023/07/12 08:30:02;;;;;;;6.35;1.02;;;;;;;;;;5058827;28;20036;-77
2023/07/12 08:32:29;;;;;;;5.28;1.00;;;;;;;;;;5061007;28;20048;-79
2023/07/12 08:35:03;;;;;;;3.55;0.85;;;;;;;;;;5061521;28;20051;-76
2023/07/12 08:37:33;;;;;;;9.82;1.30;;;;;;;;;;5069841;28;20018;-76
2023/07/12 08:39:59;;;;;;;1.92;0.90;;;;;;;;;;5059373;28;20071;-78
2023/07/12 08:43:02;;;;;;;4.25;0.85;;;;;;;;;;5070123;28;20021;-77
2023/07/12 08:45:29;;;;;;;4.35;0.88;;;;;;;;;;5061968;28;20029;-77
2023/07/12 08:48:05;;;;;;;5.60;1.05;;;;;;;;;;5078764;28;20017;-78
2023/07/12 08:56:22;;;;;;;5.35;1.10;;;;;;;;;;5049134;28;20029;-76
2023/07/12 08:58:50;;;;;;;6.47;1.30;;;;;;;;;;5051233;28;20478;-77
2023/07/12 09:01:28;;;;;;;4.10;0.98;;;;;;;;;;5051330;28;20048;-78
2023/07/12 09:03:59;;;;;;;2.35;0.88;;;;;;;;;;5048191;28;20059;-78
2023/07/12 09:06:32;;;;;;;8.10;1.45;;;;;;;;;;5051015;28;20026;-78
2023/07/12 09:09:06;;;;;;;3.50;1.15;;;;;;;;;;5051517;28;20077;-78
2023/07/12 09:11:32;;;;;;;3.53;0.65;;;;;;;;;;5051124;28;20022;-76
2023/07/12 09:14:01;;;;;;;4.75;0.95;;;;;;;;;;5050800;28;20030;-76
2023/07/12 09:16:35;;;;;;;3.67;0.80;;;;;;;;;;5050793;28;20033;-76
2023/07/12 09:19:11;;;;;;;8.55;1.00;;;;;;;;;;5050518;28;20136;-77
2023/07/12 09:21:38;;;;;;;4.45;0.88;;;;;;;;;;5049418;28;20029;-76
2023/07/12 09:24:11;;;;;;;6.30;1.35;;;;;;;;;;5044287;28;20021;-77
2023/07/12 09:26:38;;;;;;;4.90;0.90;;;;;;;;;;5045231;28;20036;-77
2023/07/12 09:29:16;;;;;;;17.15;1.23;;;;;;;;;;5046935;28;20040;-78
2023/07/12 09:31:44;;;;;;;2.65;1.00;;;;;;;;;;5049520;28;20032;-77
2023/07/12 09:34:23;;;;;;;6.82;0.70;;;;;;;;;;5051048;28;20022;-77
2023/07/12 09:36:57;;;;;;;6.07;1.23;;;;;;;;;;5051213;28;20045;-78
2023/07/12 09:39:23;;;;;;;7.55;0.93;;;;;;;;;;5047450;28;20545;-79
2023/07/12 09:41:50;;;;;;;2.72;0.80;;;;;;;;;;5043384;28;20021;-77
2023/07/12 09:44:17;;;;;;;2.13;0.63;;;;;;;;;;5049459;28;20056;-78
2023/07/12 09:46:46;;;;;;;4.65;1.08;;;;;;;;;;5047459;28;20272;-78
2023/07/12 09:49:20;;;;;;;7.35;1.13;;;;;;;;;;5046219;28;20018;-77
2023/07/12 09:52:13;;;;;;;3.58;1.10;;;;;;;;;;5047821;28;20017;-78
2023/07/12 09:54:59;;;;;;;2.78;0.75;;;;;;;;;;5041161;28;20301;-78
2023/07/12 09:57:37;;;;;;;6.88;0.82;;;;;;;;;;5049793;28;20045;-78
2023/07/12 10:00:27;;;;;;;11.30;1.20;;;;;;;;;;5045785;28;20053;-78
2023/07/12 10:03:13;;;;;;;3.78;0.60;;;;;;;;;;5040535;28;20025;-78
2023/07/12 10:05:42;;;;;;;1.92;0.63;;;;;;;;;;5050135;28;20044;-79
2023/07/12 10:08:10;;;;;;;4.53;0.70;;;;;;;;;;5047186;28;20025;-78
2023/07/12 10:10:36;;;;;;;3.53;0.70;;;;;;;;;;5051586;28;20026;-77
2023/07/12 10:13:20;;;;;;;2.00;0.60;;;;;;;;;;5050500;28;20048;-79
2023/07/12 10:15:46;;;;;;;3.92;0.77;;;;;;;;;;5064794;22;20060;-78
2023/07/12 10:18:21;;;;;;;6.68;1.40;;;;;;;;;;5064915;28;20025;-79
2023/07/12 10:20:49;;;;;;;4.35;0.90;;;;;;;;;;5052304;28;20017;-78
2023/07/12 10:23:19;;;;;;;3.30;0.70;;;;;;;;;;5051215;28;20009;-80
2023/07/12 10:25:48;;;;;;;4.63;1.00;;;;;;;;;;5046665;28;20026;-78
2023/07/12 10:28:34;;;;;;;4.07;1.17;;;;;;;;;;5063999;28;20057;-79
2023/07/12 10:31:03;;;;;;;9.00;1.90;;;;;;;;;;5049850;28;20090;-77
2023/07/12 10:33:37;;;;;;;4.80;0.70;;;;;;;;;;5046751;28;20018;-78
2023/07/12 10:36:07;;;;;;;1.65;0.85;;;;;;;;;;5047333;28;20072;-79
2023/07/12 10:38:33;;;;;;;4.63;0.70;;;;;;;;;;5046712;28;20030;-79
2023/07/12 10:41:06;;;;;;;2.28;0.65;;;;;;;;;;5046013;28;20024;-78
2023/07/12 10:43:40;;;;;;;3.15;0.63;;;;;;;;;;5046390;28;20037;-80
2023/07/12 10:46:14;;;;;;;12.15;1.15;;;;;;;;;;5045867;28;20112;-78
2023/07/12 10:48:44;;;;;;;3.08;0.60;;;;;;;;;;5049435;28;20029;-79
2023/07/12 10:51:28;;;;;;;2.50;0.50;;;;;;;;;;5049119;28;20029;-77
2023/07/12 10:53:55;;;;;;;6.32;1.25;;;;;;;;;;5050927;28;20052;-79
2023/07/12 10:56:25;;;;;;;7.55;0.90;;;;;;;;;;5061603;28;20073;-79
2023/07/12 10:58:55;;;;;;;4.88;0.80;;;;;;;;;;5066603;28;20029;-77
2023/07/12 11:01:40;;;;;;;5.05;1.20;;;;;;;;;;5050197;28;20013;-78
2023/07/12 11:04:08;;;;;;;2.83;0.80;;;;;;;;;;5047752;28;20064;-78
2023/07/12 11:06:34;;;;;;;5.78;1.00;;;;;;;;;;5049944;28;20151;-78
2023/07/12 11:09:02;;;;;;;5.53;0.88;;;;;;;;;;5046762;28;20043;-78
2023/07/12 11:11:34;;;;;;;3.25;0.93;;;;;;;;;;5046430;28;21350;-80
2023/07/12 11:14:11;;;;;;;3.22;0.70;;;;;;;;;;5044637;28;20056;-79
2023/07/12 11:16:44;;;;;;;1.90;0.70;;;;;;;;;;5046630;28;20040;-79
2023/07/12 11:19:29;;;;;;;3.70;1.00;;;;;;;;;;5044990;28;21698;-78
2023/07/12 11:21:59;;;;;;;5.43;0.63;;;;;;;;;;5046659;28;20033;-84
2023/07/12 11:24:28;;;;;;;7.45;0.95;;;;;;;;;;5042047;28;20071;-85
2023/07/12 11:26:55;;;;;;;6.00;0.57;;;;;;;;;;5048561;28;20107;-86
2023/07/12 11:29:35;;;;;;;4.68;1.00;;;;;;;;;;5038505;28;20029;-82
2023/07/12 11:32:20;;;;;;;4.10;1.00;;;;;;;;;;5046442;28;20097;-80
2023/07/12 11:34:46;;;;;;;3.63;0.60;;;;;;;;;;5046096;28;20049;-80
2023/07/12 11:37:17;;;;;;;3.72;0.85;;;;;;;;;;5064608;28;20037;-78
2023/07/12 11:39:46;;;;;;;2.75;0.80;;;;;;;;;;5042742;28;20041;-82
2023/07/12 11:42:22;;;;;;;7.03;0.95;;;;;;;;;;5035256;28;20025;-85
2023/07/12 11:45:00;;;;;;;5.40;0.80;;;;;;;;;;5030127;28;20039;-84
2023/07/12 11:47:27;;;;;;;3.58;0.90;;;;;;;;;;5049597;28;20025;-85
2023/07/12 11:49:58;;;;;;;2.65;1.02;;;;;;;;;;5030977;28;20470;-85
2023/07/12 11:52:26;;;;;;;2.80;0.77;;;;;;;;;;5047077;28;20037;-83
2023/07/12 11:54:53;;;;;;;3.40;0.70;;;;;;;;;;5039671;28;20033;-82
2023/07/12 11:57:22;;;;;;;3.30;0.73;;;;;;;;;;5028569;28;20072;-85
2023/07/12 11:59:49;;;;;;;4.60;0.70;;;;;;;;;;5043092;28;20222;-79
2023/07/12 12:02:17;;;;;;;6.93;0.90;;;;;;;;;;5033665;28;20030;-87
2023/07/12 12:04:47;;;;;;;6.80;1.20;;;;;;;;;;5028473;28;20029;-89
2023/07/12 12:07:19;;;;;;;3.53;0.70;;;;;;;;;;5029315;28;20052;-87
2023/07/12 12:09:45;;;;;;;4.03;0.55;;;;;;;;;;5029812;28;20041;-87
2023/07/12 12:12:19;;;;;;;5.75;1.02;;;;;;;;;;5026413;28;20029;-86
2023/07/12 12:14:49;;;;;;;5.63;1.17;;;;;;;;;;5031433;28;20022;-88
2023/07/12 12:17:16;;;;;;;2.45;0.77;;;;;;;;;;5024167;28;20033;-86
2023/07/12 12:19:47;;;;;;;5.70;0.98;;;;;;;;;;5027452;28;20041;-86
2023/07/12 12:22:17;;;;;;;8.18;0.95;;;;;;;;;;5029017;28;20053;-90
2023/07/12 12:24:48;;;;;;;2.88;0.65;;;;;;;;;;5026860;28;20021;-88
2023/07/12 12:27:18;;;;;;;4.00;1.00;;;;;;;;;;5030232;28;20025;-85
2023/07/12 12:29:44;;;;;;;4.43;0.77;;;;;;;;;;5046376;28;20037;-87
2023/07/12 12:32:15;;;;;;;5.38;1.33;;;;;;;;;;5026405;28;20044;-87
2023/07/12 12:34:51;;;;;;;6.35;1.20;;;;;;;;;;5027741;28;20374;-85
2023/07/12 12:37:20;;;;;;;2.20;0.80;;;;;;;;;;5029416;28;20026;-88
2023/07/12 12:39:59;;;;;;;7.45;1.40;;;;;;;;;;5030178;28;20034;-86
2023/07/12 12:42:26;;;;;;;2.80;0.85;;;;;;;;;;5028252;28;20021;-87
2023/07/12 12:44:54;;;;;;;4.30;0.75;;;;;;;;;;5024484;28;20124;-86
2023/07/12 12:47:30;;;;;;;6.10;1.13;;;;;;;;;;5028346;28;20108;-88
2023/07/12 12:49:56;;;;;;;4.38;0.70;;;;;;;;;;5029620;28;20060;-84
2023/07/12 12:52:25;;;;;;;4.25;0.82;;;;;;;;;;5025988;28;20068;-90
2023/07/12 12:54:51;;;;;;;3.22;0.68;;;;;;;;;;5031132;28;20033;-89
2023/07/12 12:57:19;;;;;;;5.63;0.90;;;;;;;;;;5026297;28;20025;-89
2023/07/12 12:59:46;;;;;;;5.50;0.60;;;;;;;;;;5029142;28;20099;-85
2023/07/12 13:02:17;;;;;;;3.15;0.65;;;;;;;;;;5044753;28;20033;-86
2023/07/12 13:04:43;;;;;;;5.47;0.70;;;;;;;;;;5025742;28;20025;-86
2023/07/12 13:07:25;;;;;;;3.13;0.40;;;;;;;;;;5026220;28;20450;-89
2023/07/12 13:09:54;;;;;;;9.18;0.85;;;;;;;;;;5030948;28;20589;-87
2023/07/12 13:12:21;;;;;;;5.15;0.75;;;;;;;;;;5028167;28;20362;-87
2023/07/12 13:14:50;;;;;;;3.05;0.68;;;;;;;;;;5027225;28;20025;-93
2023/07/12 13:17:23;;;;;;;4.22;0.70;;;;;;;;;;5026086;28;20117;-85
2023/07/12 13:19:50;;;;;;;3.65;0.73;;;;;;;;;;5033325;28;20516;-88
2023/07/12 13:22:18;;;;;;;2.22;0.73;;;;;;;;;;5031004;28;20307;-89
2023/07/12 13:24:44;;;;;;;2.03;0.63;;;;;;;;;;5031980;28;20029;-86
2023/07/12 13:27:22;;;;;;;2.83;0.70;;;;;;;;;;5030782;28;20029;-84
2023/07/12 13:29:51;;;;;;;3.78;0.65;;;;;;;;;;5030312;28;20025;-85
2023/07/12 13:32:18;;;;;;;3.35;0.85;;;;;;;;;;5027155;28;20025;-85
2023/07/12 13:34:44;;;;;;;4.93;1.15;;;;;;;;;;5032008;28;20521;-88
2023/07/12 13:37:16;;;;;;;4.75;0.90;;;;;;;;;;5032933;28;20029;-87
2023/07/12 13:39:42;;;;;;;6.22;0.80;;;;;;;;;;5031194;28;20033;-87
2023/07/12 13:42:11;;;;;;;5.05;0.88;;;;;;;;;;5031055;28;20036;-88
2023/07/12 13:44:38;;;;;;;7.90;1.20;;;;;;;;;;5030652;28;20108;-87
2023/07/12 13:47:13;;;;;;;6.22;0.80;;;;;;;;;;5029896;28;20034;-86
2023/07/12 13:49:39;;;;;;;15.32;1.25;;;;;;;;;;5032998;28;20026;-84
2023/07/12 13:52:06;;;;;;;7.55;1.77;;;;;;;;;;5028589;28;20029;-87
2023/07/12 13:54:32;;;;;;;9.38;1.05;;;;;;;;;;5030078;28;20025;-87
2023/07/12 13:56:58;;;;;;;13.65;1.55;;;;;;;;;;5025527;28;20347;-84
2023/07/12 13:59:24;;;;;;;2.85;0.68;;;;;;;;;;5029214;28;20113;-87
2023/07/12 14:01:50;;;;;;;2.65;0.80;;;;;;;;;;5042422;28;20109;-86
2023/07/12 14:04:17;;;;;;;4.30;0.85;;;;;;;;;;5029686;28;20438;-90
2023/07/12 14:06:43;;;;;;;10.80;1.92;;;;;;;;;;5034173;28;20040;-82
2023/07/12 14:09:10;;;;;;;4.90;1.33;;;;;;;;;;5029510;28;20029;-83
2023/07/12 14:11:37;;;;;;;3.97;0.93;;;;;;;;;;5026115;28;20500;-84
2023/07/12 14:14:03;;;;;;;4.95;0.90;;;;;;;;;;5031204;28;20525;-84
2023/07/12 14:16:29;;;;;;;1.73;0.73;;;;;;;;;;5031265;28;20025;-87
2023/07/12 14:18:55;;;;;;;2.55;0.75;;;;;;;;;;5025441;28;20892;-87
2023/07/12 14:21:22;;;;;;;4.15;0.90;;;;;;;;;;5043701;28;20141;-87
2023/07/12 14:23:49;;;;;;;3.78;1.10;;;;;;;;;;5027714;28;20033;-85
2023/07/12 14:26:24;;;;;;;5.18;1.15;;;;;;;;;;5031198;28;20037;-87
2023/07/12 14:28:50;;;;;;;4.72;1.27;;;;;;;;;;5032216;28;20065;-87
2023/07/12 14:31:18;;;;;;;3.38;1.05;;;;;;;;;;5032651;28;20033;-86
2023/07/12 14:33:45;;;;;;;3.85;1.27;;;;;;;;;;5032887;28;20026;-86
2023/07/12 14:36:20;;;;;;;3.13;0.90;;;;;;;;;;5032531;28;20032;-87
2023/07/12 14:38:47;;;;;;;2.08;0.60;;;;;;;;;;5029287;28;20086;-86
2023/07/12 14:41:29;;;;;;;5.70;1.15;;;;;;;;;;5030827;28;20037;-88
2023/07/12 14:43:59;;;;;;;2.63;0.88;;;;;;;;;;5026868;28;20017;-86
2023/07/12 14:46:26;;;;;;;9.63;0.95;;;;;;;;;;5026171;28;20032;-88
2023/07/12 14:48:52;;;;;;;5.90;0.77;;;;;;;;;;5026858;28;20037;-88
2023/07/12 14:51:20;;;;;;;4.93;0.95;;;;;;;;;;5031217;28;20028;-88
2023/07/12 14:53:47;;;;;;;2.50;0.60;;;;;;;;;;5026727;28;20036;-90
2023/07/12 14:56:13;;;;;;;3.78;0.52;;;;;;;;;;5025348;28;20052;-88
2023/07/12 14:58:39;;;;;;;2.50;0.90;;;;;;;;;;5026766;28;20033;-85
2023/07/12 15:01:14;;;;;;;4.57;1.10;;;;;;;;;;5029368;28;20025;-87